sensor_id;sensor_type;location;lat;lon;timestamp;temperature;humidity
41784;DHT22;27458;53.236;-6.622;2022-08-01T00:02:13;17.70;99.90
41784;DHT22;27458;53.236;-6.622;2022-08-01T00:04:39;17.70;99.90
41784;DHT22;27458;53.236;-6.622;2022-08-01T00:07:04;17.70;99.90
41784;DHT22;27458;53.236;-6.622;2022-08-01T00:09:30;17.70;99.90
41784;DHT22;27458;53.236;-6.622;2022-08-01T00:11:56;17.70;99.90
41784;DHT22;27458;53.236;-6.622;2022-08-01T00:14:22;17.60;99.90
41784;DHT22;27458;53.236;-6.622;2022-08-01T00:16:48;17.60;99.90
41784;DHT22;27458;53.236;-6.622;2022-08-01T00:19:14;17.60;99.90
41784;DHT22;27458;53.236;-6.622;2022-08-01T00:21:39;17.50;99.90
41784;DHT22;27458;53.236;-6.622;2022-08-01T00:24:05;17.50;99.90
41784;DHT22;27458;53.236;-6.622;2022-08-01T00:26:31;17.50;99.90
41784;DHT22;27458;53.236;-6.622;2022-08-01T00:28:57;17.50;99.90
41784;DHT22;27458;53.236;-6.622;2022-08-01T00:31:23;17.50;99.90
41784;DHT22;27458;53.236;-6.622;2022-08-01T00:33:49;17.50;99.90
41784;DHT22;27458;53.236;-6.622;2022-08-01T00:36:14;17.50;99.90
41784;DHT22;27458;53.236;-6.622;2022-08-01T00:38:40;17.50;99.90
41784;DHT22;27458;53.236;-6.622;2022-08-01T00:41:06;17.50;99.90
41784;DHT22;27458;53.236;-6.622;2022-08-01T00:43:32;17.50;99.90
41784;DHT22;27458;53.236;-6.622;2022-08-01T00:45:57;17.40;99.90
41784;DHT22;27458;53.236;-6.622;2022-08-01T00:48:23;17.40;99.90
41784;DHT22;27458;53.236;-6.622;2022-08-01T00:50:49;17.40;99.90
41784;DHT22;27458;53.236;-6.622;2022-08-01T00:53:15;17.40;99.90
41784;DHT22;27458;53.236;-6.622;2022-08-01T00:55:41;17.40;99.90
41784;DHT22;27458;53.236;-6.622;2022-08-01T00:58:07;17.40;99.90
41784;DHT22;27458;53.236;-6.622;2022-08-01T01:00:34;17.30;99.90
41784;DHT22;27458;53.236;-6.622;2022-08-01T01:03:01;17.30;99.90
41784;DHT22;27458;53.236;-6.622;2022-08-01T01:05:26;17.30;99.90
41784;DHT22;27458;53.236;-6.622;2022-08-01T01:08:03;17.20;99.90
41784;DHT22;27458;53.236;-6.622;2022-08-01T01:10:53;17.20;99.90
41784;DHT22;27458;53.236;-6.622;2022-08-01T01:16:15;17.20;99.90
41784;DHT22;27458;53.236;-6.622;2022-08-01T01:18:48;17.20;99.90
41784;DHT22;27458;53.236;-6.622;2022-08-01T01:26:45;17.20;99.90
41784;DHT22;27458;53.236;-6.622;2022-08-01T01:29:30;17.10;99.90
41784;DHT22;27458;53.236;-6.622;2022-08-01T01:32:20;17.20;99.90
41784;DHT22;27458;53.236;-6.622;2022-08-01T01:34:49;17.10;99.90
41784;DHT22;27458;53.236;-6.622;2022-08-01T01:37:18;17.10;99.90
41784;DHT22;27458;53.236;-6.622;2022-08-01T01:39:49;17.10;99.90
41784;DHT22;27458;53.236;-6.622;2022-08-01T01:42:17;17.10;99.90
41784;DHT22;27458;53.236;-6.622;2022-08-01T01:44:44;17.10;99.90
41784;DHT22;27458;53.236;-6.622;2022-08-01T01:47:14;17.10;99.90
41784;DHT22;27458;53.236;-6.622;2022-08-01T01:49:44;17.10;99.90
41784;DHT22;27458;53.236;-6.622;2022-08-01T01:52:13;17.10;99.90
41784;DHT22;27458;53.236;-6.622;2022-08-01T01:54:44;17.10;99.90
41784;DHT22;27458;53.236;-6.622;2022-08-01T01:57:15;17.10;99.90
41784;DHT22;27458;53.236;-6.622;2022-08-01T01:59:41;17.20;99.90
41784;DHT22;27458;53.236;-6.622;2022-08-01T02:02:14;17.20;99.90
41784;DHT22;27458;53.236;-6.622;2022-08-01T02:04:42;17.20;99.90
41784;DHT22;27458;53.236;-6.622;2022-08-01T02:07:10;17.20;99.90
41784;DHT22;27458;53.236;-6.622;2022-08-01T02:09:37;17.10;99.90
41784;DHT22;27458;53.236;-6.622;2022-08-01T02:12:05;17.20;99.90
41784;DHT22;27458;53.236;-6.622;2022-08-01T02:14:34;17.20;99.90
41784;DHT22;27458;53.236;-6.622;2022-08-01T02:17:03;17.20;99.90
41784;DHT22;27458;53.236;-6.622;2022-08-01T02:19:29;17.20;99.90
41784;DHT22;27458;53.236;-6.622;2022-08-01T02:22:01;17.20;99.90
41784;DHT22;27458;53.236;-6.622;2022-08-01T02:24:50;17.20;99.90
41784;DHT22;27458;53.236;-6.622;2022-08-01T02:27:23;17.10;99.90
41784;DHT22;27458;53.236;-6.622;2022-08-01T02:32:29;17.10;99.90
41784;DHT22;27458;53.236;-6.622;2022-08-01T02:34:57;17.00;99.90
41784;DHT22;27458;53.236;-6.622;2022-08-01T02:37:26;17.00;99.90
41784;DHT22;27458;53.236;-6.622;2022-08-01T02:39:54;17.00;99.90
41784;DHT22;27458;53.236;-6.622;2022-08-01T02:42:23;17.00;99.90
41784;DHT22;27458;53.236;-6.622;2022-08-01T02:44:52;16.90;99.90
41784;DHT22;27458;53.236;-6.622;2022-08-01T02:47:20;17.00;99.90
41784;DHT22;27458;53.236;-6.622;2022-08-01T02:49:48;16.90;99.90
41784;DHT22;27458;53.236;-6.622;2022-08-01T02:52:16;16.90;99.90
41784;DHT22;27458;53.236;-6.622;2022-08-01T02:54:49;16.90;99.90
41784;DHT22;27458;53.236;-6.622;2022-08-01T02:57:18;16.90;99.90
41784;DHT22;27458;53.236;-6.622;2022-08-01T02:59:45;16.90;99.90
41784;DHT22;27458;53.236;-6.622;2022-08-01T03:02:12;16.90;99.90
41784;DHT22;27458;53.236;-6.622;2022-08-01T03:04:40;16.90;99.90
41784;DHT22;27458;53.236;-6.622;2022-08-01T03:07:08;17.00;99.90
41784;DHT22;27458;53.236;-6.622;2022-08-01T03:09:38;16.90;99.90
41784;DHT22;27458;53.236;-6.622;2022-08-01T03:12:08;16.90;99.90
41784;DHT22;27458;53.236;-6.622;2022-08-01T03:14:35;16.90;99.90
41784;DHT22;27458;53.236;-6.622;2022-08-01T03:17:02;16.80;99.90
41784;DHT22;27458;53.236;-6.622;2022-08-01T03:19:30;16.80;99.90
41784;DHT22;27458;53.236;-6.622;2022-08-01T03:21:57;16.80;99.90
41784;DHT22;27458;53.236;-6.622;2022-08-01T03:24:28;16.80;99.90
41784;DHT22;27458;53.236;-6.622;2022-08-01T03:26:56;16.80;99.90
41784;DHT22;27458;53.236;-6.622;2022-08-01T03:29:25;16.70;99.90
41784;DHT22;27458;53.236;-6.622;2022-08-01T03:32:14;16.70;99.90
41784;DHT22;27458;53.236;-6.622;2022-08-01T03:34:41;16.70;99.90
41784;DHT22;27458;53.236;-6.622;2022-08-01T03:37:29;16.60;99.90
41784;DHT22;27458;53.236;-6.622;2022-08-01T03:40:02;16.60;99.90
41784;DHT22;27458;53.236;-6.622;2022-08-01T03:42:35;16.50;99.90
41784;DHT22;27458;53.236;-6.622;2022-08-01T03:45:06;16.50;99.90
41784;DHT22;27458;53.236;-6.622;2022-08-01T03:47:35;16.50;99.90
41784;DHT22;27458;53.236;-6.622;2022-08-01T03:50:04;16.40;99.90
41784;DHT22;27458;53.236;-6.622;2022-08-01T03:52:32;16.40;99.90
41784;DHT22;27458;53.236;-6.622;2022-08-01T03:55:03;16.40;99.90
41784;DHT22;27458;53.236;-6.622;2022-08-01T03:57:31;16.50;99.90
41784;DHT22;27458;53.236;-6.622;2022-08-01T03:59:58;16.50;99.90
41784;DHT22;27458;53.236;-6.622;2022-08-01T04:02:28;16.60;99.90
41784;DHT22;27458;53.236;-6.622;2022-08-01T04:04:54;16.50;99.90
41784;DHT22;27458;53.236;-6.622;2022-08-01T04:07:25;16.60;99.90
41784;DHT22;27458;53.236;-6.622;2022-08-01T04:09:51;16.60;99.90
41784;DHT22;27458;53.236;-6.622;2022-08-01T04:12:17;16.70;99.90
41784;DHT22;27458;53.236;-6.622;2022-08-01T04:14:46;16.70;99.90
41784;DHT22;27458;53.236;-6.622;2022-08-01T04:17:15;16.70;99.90
41784;DHT22;27458;53.236;-6.622;2022-08-01T04:19:42;16.70;99.90
41784;DHT22;27458;53.236;-6.622;2022-08-01T04:22:09;16.70;99.90
41784;DHT22;27458;53.236;-6.622;2022-08-01T04:24:36;16.70;99.90
41784;DHT22;27458;53.236;-6.622;2022-08-01T04:27:05;16.70;99.90
41784;DHT22;27458;53.236;-6.622;2022-08-01T04:29:33;16.70;99.90
41784;DHT22;27458;53.236;-6.622;2022-08-01T04:32:00;16.70;99.90
41784;DHT22;27458;53.236;-6.622;2022-08-01T04:34:28;16.70;99.90
41784;DHT22;27458;53.236;-6.622;2022-08-01T04:36:59;16.70;99.90
41784;DHT22;27458;53.236;-6.622;2022-08-01T04:39:28;16.70;99.90
41784;DHT22;27458;53.236;-6.622;2022-08-01T04:42:00;16.60;99.90
41784;DHT22;27458;53.236;-6.622;2022-08-01T04:44:29;16.60;99.90
41784;DHT22;27458;53.236;-6.622;2022-08-01T04:46:59;16.60;99.90
41784;DHT22;27458;53.236;-6.622;2022-08-01T04:49:25;16.50;99.90
41784;DHT22;27458;53.236;-6.622;2022-08-01T04:51:52;16.50;99.90
41784;DHT22;27458;53.236;-6.622;2022-08-01T04:54:26;16.50;99.90
41784;DHT22;27458;53.236;-6.622;2022-08-01T04:56:53;16.40;99.90
41784;DHT22;27458;53.236;-6.622;2022-08-01T04:59:21;16.40;99.90
41784;DHT22;27458;53.236;-6.622;2022-08-01T05:02:17;16.30;99.90
41784;DHT22;27458;53.236;-6.622;2022-08-01T05:04:45;16.20;99.90
41784;DHT22;27458;53.236;-6.622;2022-08-01T05:07:11;16.20;99.90
41784;DHT22;27458;53.236;-6.622;2022-08-01T05:09:38;16.20;99.90
41784;DHT22;27458;53.236;-6.622;2022-08-01T05:12:07;16.10;99.90
41784;DHT22;27458;53.236;-6.622;2022-08-01T05:14:34;16.10;99.90
41784;DHT22;27458;53.236;-6.622;2022-08-01T05:17:05;16.10;99.90
41784;DHT22;27458;53.236;-6.622;2022-08-01T05:19:32;16.10;99.90
41784;DHT22;27458;53.236;-6.622;2022-08-01T05:21:59;16.00;99.90
41784;DHT22;27458;53.236;-6.622;2022-08-01T05:24:29;16.00;99.90
41784;DHT22;27458;53.236;-6.622;2022-08-01T05:26:55;16.00;99.90
41784;DHT22;27458;53.236;-6.622;2022-08-01T05:29:22;16.00;99.90
41784;DHT22;27458;53.236;-6.622;2022-08-01T05:31:49;15.90;99.90
41784;DHT22;27458;53.236;-6.622;2022-08-01T05:34:15;15.90;99.90
41784;DHT22;27458;53.236;-6.622;2022-08-01T05:36:42;15.90;99.90
41784;DHT22;27458;53.236;-6.622;2022-08-01T05:39:08;15.90;99.90
41784;DHT22;27458;53.236;-6.622;2022-08-01T05:41:33;16.00;99.90
41784;DHT22;27458;53.236;-6.622;2022-08-01T05:44:02;16.00;99.90
41784;DHT22;27458;53.236;-6.622;2022-08-01T05:46:28;16.00;99.90
41784;DHT22;27458;53.236;-6.622;2022-08-01T05:48:56;16.00;99.90
41784;DHT22;27458;53.236;-6.622;2022-08-01T05:51:22;16.10;99.90
41784;DHT22;27458;53.236;-6.622;2022-08-01T05:53:48;16.20;99.90
41784;DHT22;27458;53.236;-6.622;2022-08-01T05:56:13;16.30;99.90
41784;DHT22;27458;53.236;-6.622;2022-08-01T05:58:39;16.50;99.90
41784;DHT22;27458;53.236;-6.622;2022-08-01T06:01:05;16.50;99.90
41784;DHT22;27458;53.236;-6.622;2022-08-01T06:03:34;16.60;99.90
41784;DHT22;27458;53.236;-6.622;2022-08-01T06:06:00;16.60;99.90
41784;DHT22;27458;53.236;-6.622;2022-08-01T06:08:26;16.70;99.90
41784;DHT22;27458;53.236;-6.622;2022-08-01T06:10:52;16.70;99.90
41784;DHT22;27458;53.236;-6.622;2022-08-01T06:13:18;16.70;99.90
41784;DHT22;27458;53.236;-6.622;2022-08-01T06:15:45;16.80;99.90
41784;DHT22;27458;53.236;-6.622;2022-08-01T06:18:12;16.90;99.90
41784;DHT22;27458;53.236;-6.622;2022-08-01T06:20:38;16.90;99.90
41784;DHT22;27458;53.236;-6.622;2022-08-01T06:23:04;16.90;99.90
41784;DHT22;27458;53.236;-6.622;2022-08-01T06:25:29;16.90;99.90
41784;DHT22;27458;53.236;-6.622;2022-08-01T06:27:55;17.00;99.90
41784;DHT22;27458;53.236;-6.622;2022-08-01T06:30:21;18.40;99.90
41784;DHT22;27458;53.236;-6.622;2022-08-01T06:32:47;20.60;99.90
41784;DHT22;27458;53.236;-6.622;2022-08-01T06:35:14;22.70;99.90
41784;DHT22;27458;53.236;-6.622;2022-08-01T06:37:40;24.40;99.90
41784;DHT22;27458;53.236;-6.622;2022-08-01T06:40:08;25.80;99.90
41784;DHT22;27458;53.236;-6.622;2022-08-01T06:42:35;26.90;99.90
41784;DHT22;27458;53.236;-6.622;2022-08-01T06:45:05;27.90;99.90
41784;DHT22;27458;53.236;-6.622;2022-08-01T06:47:32;28.80;99.90
41784;DHT22;27458;53.236;-6.622;2022-08-01T06:49:57;29.50;99.90
41784;DHT22;27458;53.236;-6.622;2022-08-01T06:52:23;29.50;99.90
41784;DHT22;27458;53.236;-6.622;2022-08-01T06:54:49;28.70;99.90
41784;DHT22;27458;53.236;-6.622;2022-08-01T06:57:18;27.60;99.90
41784;DHT22;27458;53.236;-6.622;2022-08-01T06:59:43;26.90;99.90
41784;DHT22;27458;53.236;-6.622;2022-08-01T07:02:09;26.10;99.90
41784;DHT22;27458;53.236;-6.622;2022-08-01T07:04:35;25.40;99.90
41784;DHT22;27458;53.236;-6.622;2022-08-01T07:07:01;24.50;99.90
41784;DHT22;27458;53.236;-6.622;2022-08-01T07:09:28;23.80;99.90
41784;DHT22;27458;53.236;-6.622;2022-08-01T07:11:54;24.00;99.90
41784;DHT22;27458;53.236;-6.622;2022-08-01T07:14:21;24.40;99.90
41784;DHT22;27458;53.236;-6.622;2022-08-01T07:16:47;24.90;99.90
41784;DHT22;27458;53.236;-6.622;2022-08-01T07:19:13;24.80;99.90
41784;DHT22;27458;53.236;-6.622;2022-08-01T07:21:41;25.40;99.90
41784;DHT22;27458;53.236;-6.622;2022-08-01T07:24:09;26.40;99.90
41784;DHT22;27458;53.236;-6.622;2022-08-01T07:26:35;27.20;99.90
41784;DHT22;27458;53.236;-6.622;2022-08-01T07:29:01;26.90;99.90
41784;DHT22;27458;53.236;-6.622;2022-08-01T07:31:26;26.10;99.90
41784;DHT22;27458;53.236;-6.622;2022-08-01T07:33:52;25.20;99.90
41784;DHT22;27458;53.236;-6.622;2022-08-01T07:36:21;24.60;99.90
41784;DHT22;27458;53.236;-6.622;2022-08-01T07:38:47;24.00;99.90
41784;DHT22;27458;53.236;-6.622;2022-08-01T07:41:13;23.50;99.90
41784;DHT22;27458;53.236;-6.622;2022-08-01T07:43:39;23.00;99.90
41784;DHT22;27458;53.236;-6.622;2022-08-01T07:46:05;22.60;99.90
41784;DHT22;27458;53.236;-6.622;2022-08-01T07:48:31;22.20;99.90
41784;DHT22;27458;53.236;-6.622;2022-08-01T07:50:57;22.00;99.90
41784;DHT22;27458;53.236;-6.622;2022-08-01T07:53:23;21.70;99.90
41784;DHT22;27458;53.236;-6.622;2022-08-01T07:55:49;21.50;99.90
41784;DHT22;27458;53.236;-6.622;2022-08-01T07:58:15;21.40;99.90
41784;DHT22;27458;53.236;-6.622;2022-08-01T08:00:41;21.40;99.90
41784;DHT22;27458;53.236;-6.622;2022-08-01T08:03:07;21.50;99.90
41784;DHT22;27458;53.236;-6.622;2022-08-01T08:05:33;21.50;99.90
41784;DHT22;27458;53.236;-6.622;2022-08-01T08:08:04;21.50;99.90
41784;DHT22;27458;53.236;-6.622;2022-08-01T08:10:30;21.50;99.90
41784;DHT22;27458;53.236;-6.622;2022-08-01T08:12:56;21.50;99.90
41784;DHT22;27458;53.236;-6.622;2022-08-01T08:15:21;21.50;99.90
41784;DHT22;27458;53.236;-6.622;2022-08-01T08:17:47;21.60;99.90
41784;DHT22;27458;53.236;-6.622;2022-08-01T08:20:14;21.70;99.90
41784;DHT22;27458;53.236;-6.622;2022-08-01T08:22:40;21.80;99.90
41784;DHT22;27458;53.236;-6.622;2022-08-01T08:25:06;21.80;99.90
41784;DHT22;27458;53.236;-6.622;2022-08-01T08:27:32;21.90;99.90
41784;DHT22;27458;53.236;-6.622;2022-08-01T08:30:02;21.90;99.90
41784;DHT22;27458;53.236;-6.622;2022-08-01T08:32:28;22.00;99.90
41784;DHT22;27458;53.236;-6.622;2022-08-01T08:34:54;22.00;99.90
41784;DHT22;27458;53.236;-6.622;2022-08-01T08:37:20;22.10;99.90
41784;DHT22;27458;53.236;-6.622;2022-08-01T08:39:45;22.10;99.90
41784;DHT22;27458;53.236;-6.622;2022-08-01T08:42:11;22.10;99.90
41784;DHT22;27458;53.236;-6.622;2022-08-01T08:44:37;22.10;99.90
41784;DHT22;27458;53.236;-6.622;2022-08-01T08:47:05;22.10;99.90
41784;DHT22;27458;53.236;-6.622;2022-08-01T08:49:33;22.00;99.90
41784;DHT22;27458;53.236;-6.622;2022-08-01T08:52:00;21.90;99.90
41784;DHT22;27458;53.236;-6.622;2022-08-01T08:54:27;21.90;99.90
41784;DHT22;27458;53.236;-6.622;2022-08-01T08:56:58;21.90;99.90
41784;DHT22;27458;53.236;-6.622;2022-08-01T08:59:26;21.90;99.90
41784;DHT22;27458;53.236;-6.622;2022-08-01T09:01:52;21.90;99.90
41784;DHT22;27458;53.236;-6.622;2022-08-01T09:04:18;22.00;99.90
41784;DHT22;27458;53.236;-6.622;2022-08-01T09:06:48;22.10;99.90
41784;DHT22;27458;53.236;-6.622;2022-08-01T09:09:14;22.30;99.90
41784;DHT22;27458;53.236;-6.622;2022-08-01T09:11:39;22.50;99.90
41784;DHT22;27458;53.236;-6.622;2022-08-01T09:14:11;22.60;99.90
41784;DHT22;27458;53.236;-6.622;2022-08-01T09:16:59;22.80;99.90
41784;DHT22;27458;53.236;-6.622;2022-08-01T09:19:25;22.90;99.90
41784;DHT22;27458;53.236;-6.622;2022-08-01T09:22:02;22.90;99.90
41784;DHT22;27458;53.236;-6.622;2022-08-01T09:24:34;22.90;99.90
41784;DHT22;27458;53.236;-6.622;2022-08-01T09:27:17;23.00;99.90
41784;DHT22;27458;53.236;-6.622;2022-08-01T09:29:43;23.00;99.90
41784;DHT22;27458;53.236;-6.622;2022-08-01T09:32:10;23.10;99.90
41784;DHT22;27458;53.236;-6.622;2022-08-01T09:34:36;23.20;99.90
41784;DHT22;27458;53.236;-6.622;2022-08-01T09:37:06;23.40;99.90
41784;DHT22;27458;53.236;-6.622;2022-08-01T09:39:35;23.50;99.90
41784;DHT22;27458;53.236;-6.622;2022-08-01T09:42:23;23.50;99.90
41784;DHT22;27458;53.236;-6.622;2022-08-01T09:44:49;23.50;99.90
41784;DHT22;27458;53.236;-6.622;2022-08-01T09:47:15;23.50;99.90
41784;DHT22;27458;53.236;-6.622;2022-08-01T09:49:43;23.50;99.90
41784;DHT22;27458;53.236;-6.622;2022-08-01T09:52:16;23.60;99.90
41784;DHT22;27458;53.236;-6.622;2022-08-01T09:54:44;23.50;99.90
41784;DHT22;27458;53.236;-6.622;2022-08-01T09:57:18;23.50;99.90
41784;DHT22;27458;53.236;-6.622;2022-08-01T09:59:49;23.50;99.90
41784;DHT22;27458;53.236;-6.622;2022-08-01T10:02:33;23.60;99.90
41784;DHT22;27458;53.236;-6.622;2022-08-01T10:05:02;23.90;99.90
41784;DHT22;27458;53.236;-6.622;2022-08-01T10:07:28;24.00;99.90
41784;DHT22;27458;53.236;-6.622;2022-08-01T10:09:56;24.00;99.90
41784;DHT22;27458;53.236;-6.622;2022-08-01T10:12:34;24.10;99.90
41784;DHT22;27458;53.236;-6.622;2022-08-01T10:15:00;24.20;99.90
41784;DHT22;27458;53.236;-6.622;2022-08-01T10:17:26;24.20;99.90
41784;DHT22;27458;53.236;-6.622;2022-08-01T10:19:56;24.20;99.90
41784;DHT22;27458;53.236;-6.622;2022-08-01T10:22:24;24.30;99.90
41784;DHT22;27458;53.236;-6.622;2022-08-01T10:24:55;24.30;99.90
41784;DHT22;27458;53.236;-6.622;2022-08-01T10:27:21;24.30;99.90
41784;DHT22;27458;53.236;-6.622;2022-08-01T10:29:59;24.40;99.90
41784;DHT22;27458;53.236;-6.622;2022-08-01T10:32:30;24.40;99.90
41784;DHT22;27458;53.236;-6.622;2022-08-01T10:34:56;24.40;99.90
41784;DHT22;27458;53.236;-6.622;2022-08-01T10:37:23;24.30;99.90
41784;DHT22;27458;53.236;-6.622;2022-08-01T10:39:50;24.30;99.90
41784;DHT22;27458;53.236;-6.622;2022-08-01T10:42:17;24.20;99.90
41784;DHT22;27458;53.236;-6.622;2022-08-01T10:44:43;24.20;99.90
41784;DHT22;27458;53.236;-6.622;2022-08-01T10:47:14;24.10;99.90
41784;DHT22;27458;53.236;-6.622;2022-08-01T10:49:45;24.10;99.90
41784;DHT22;27458;53.236;-6.622;2022-08-01T10:52:17;24.10;99.90
41784;DHT22;27458;53.236;-6.622;2022-08-01T10:54:43;24.10;99.90
41784;DHT22;27458;53.236;-6.622;2022-08-01T10:57:09;24.00;99.90
41784;DHT22;27458;53.236;-6.622;2022-08-01T10:59:50;23.90;99.90
41784;DHT22;27458;53.236;-6.622;2022-08-01T11:02:30;23.90;99.90
41784;DHT22;27458;53.236;-6.622;2022-08-01T11:05:20;23.80;99.90
41784;DHT22;27458;53.236;-6.622;2022-08-01T11:07:51;23.80;99.90
41784;DHT22;27458;53.236;-6.622;2022-08-01T11:10:41;23.80;99.90
41784;DHT22;27458;53.236;-6.622;2022-08-01T11:13:10;23.60;99.90
41784;DHT22;27458;53.236;-6.622;2022-08-01T11:15:40;23.50;99.90
41784;DHT22;27458;53.236;-6.622;2022-08-01T11:18:29;23.40;99.90
41784;DHT22;27458;53.236;-6.622;2022-08-01T11:20:59;23.30;99.90
41784;DHT22;27458;53.236;-6.622;2022-08-01T11:23:29;23.20;99.90
41784;DHT22;27458;53.236;-6.622;2022-08-01T11:28:27;23.00;99.90
41784;DHT22;27458;53.236;-6.622;2022-08-01T11:38:39;22.90;99.90
41784;DHT22;27458;53.236;-6.622;2022-08-01T11:41:12;23.10;99.90
41784;DHT22;27458;53.236;-6.622;2022-08-01T11:47:03;23.20;99.90
41784;DHT22;27458;53.236;-6.622;2022-08-01T11:55:01;23.20;99.90
41784;DHT22;27458;53.236;-6.622;2022-08-01T11:57:30;23.30;99.90
41784;DHT22;27458;53.236;-6.622;2022-08-01T11:59:58;23.30;99.90
41784;DHT22;27458;53.236;-6.622;2022-08-01T12:02:26;23.30;99.90
41784;DHT22;27458;53.236;-6.622;2022-08-01T12:07:28;23.20;99.90
41784;DHT22;27458;53.236;-6.622;2022-08-01T12:10:11;23.10;99.90
41784;DHT22;27458;53.236;-6.622;2022-08-01T12:13:03;22.90;99.90
41784;DHT22;27458;53.236;-6.622;2022-08-01T12:15:33;22.90;99.90
41784;DHT22;27458;53.236;-6.622;2022-08-01T12:18:01;22.90;99.90
41784;DHT22;27458;53.236;-6.622;2022-08-01T12:20:30;23.00;99.90
41784;DHT22;27458;53.236;-6.622;2022-08-01T12:23:01;23.20;99.90
41784;DHT22;27458;53.236;-6.622;2022-08-01T12:25:28;23.30;99.90
41784;DHT22;27458;53.236;-6.622;2022-08-01T12:27:54;23.40;99.90
41784;DHT22;27458;53.236;-6.622;2022-08-01T12:30:21;23.60;99.90
41784;DHT22;27458;53.236;-6.622;2022-08-01T12:32:54;23.60;99.90
41784;DHT22;27458;53.236;-6.622;2022-08-01T12:35:25;23.70;99.90
41784;DHT22;27458;53.236;-6.622;2022-08-01T12:37:53;23.50;99.90
41784;DHT22;27458;53.236;-6.622;2022-08-01T12:40:25;23.40;99.90
41784;DHT22;27458;53.236;-6.622;2022-08-01T12:42:56;23.30;99.90
41784;DHT22;27458;53.236;-6.622;2022-08-01T12:45:27;23.30;99.90
41784;DHT22;27458;53.236;-6.622;2022-08-01T12:47:55;23.20;99.90
41784;DHT22;27458;53.236;-6.622;2022-08-01T12:50:24;23.20;99.90
41784;DHT22;27458;53.236;-6.622;2022-08-01T12:52:51;23.10;99.90
41784;DHT22;27458;53.236;-6.622;2022-08-01T12:55:19;23.00;99.90
41784;DHT22;27458;53.236;-6.622;2022-08-01T12:57:48;23.00;99.90
41784;DHT22;27458;53.236;-6.622;2022-08-01T13:00:25;22.90;99.90
41784;DHT22;27458;53.236;-6.622;2022-08-01T13:08:14;22.60;99.90
41784;DHT22;27458;53.236;-6.622;2022-08-01T13:10:41;22.40;99.90
41784;DHT22;27458;53.236;-6.622;2022-08-01T13:13:08;22.30;99.90
41784;DHT22;27458;53.236;-6.622;2022-08-01T13:15:39;22.20;99.90
41784;DHT22;27458;53.236;-6.622;2022-08-01T13:18:29;22.10;99.90
41784;DHT22;27458;53.236;-6.622;2022-08-01T13:23:34;21.90;99.90
41784;DHT22;27458;53.236;-6.622;2022-08-01T13:26:00;21.90;99.90
41784;DHT22;27458;53.236;-6.622;2022-08-01T13:28:26;21.90;99.90
41784;DHT22;27458;53.236;-6.622;2022-08-01T13:31:04;21.80;99.90
41784;DHT22;27458;53.236;-6.622;2022-08-01T13:33:45;21.80;99.90
41784;DHT22;27458;53.236;-6.622;2022-08-01T13:36:11;21.70;99.90
41784;DHT22;27458;53.236;-6.622;2022-08-01T13:38:38;21.70;99.90
41784;DHT22;27458;53.236;-6.622;2022-08-01T13:41:22;21.70;99.90
41784;DHT22;27458;53.236;-6.622;2022-08-01T13:43:48;21.70;99.90
41784;DHT22;27458;53.236;-6.622;2022-08-01T13:46:14;21.60;99.90
41784;DHT22;27458;53.236;-6.622;2022-08-01T13:48:40;21.60;99.90
41784;DHT22;27458;53.236;-6.622;2022-08-01T13:51:06;21.60;99.90
41784;DHT22;27458;53.236;-6.622;2022-08-01T13:53:32;21.60;99.90
41784;DHT22;27458;53.236;-6.622;2022-08-01T13:55:58;21.60;99.90
41784;DHT22;27458;53.236;-6.622;2022-08-01T13:58:23;21.60;99.90
41784;DHT22;27458;53.236;-6.622;2022-08-01T14:00:51;21.60;99.90
41784;DHT22;27458;53.236;-6.622;2022-08-01T14:03:17;21.60;99.90
41784;DHT22;27458;53.236;-6.622;2022-08-01T14:05:46;21.60;99.90
41784;DHT22;27458;53.236;-6.622;2022-08-01T14:08:12;21.60;99.90
41784;DHT22;27458;53.236;-6.622;2022-08-01T14:10:38;21.70;99.90
41784;DHT22;27458;53.236;-6.622;2022-08-01T14:13:06;21.70;99.90
41784;DHT22;27458;53.236;-6.622;2022-08-01T14:15:32;21.70;99.90
41784;DHT22;27458;53.236;-6.622;2022-08-01T14:17:58;21.70;99.90
41784;DHT22;27458;53.236;-6.622;2022-08-01T14:20:24;21.70;99.90
41784;DHT22;27458;53.236;-6.622;2022-08-01T14:22:50;21.70;99.90
41784;DHT22;27458;53.236;-6.622;2022-08-01T14:25:16;21.70;99.90
41784;DHT22;27458;53.236;-6.622;2022-08-01T14:27:46;21.70;99.90
41784;DHT22;27458;53.236;-6.622;2022-08-01T14:30:12;21.80;99.90
41784;DHT22;27458;53.236;-6.622;2022-08-01T14:32:38;21.70;99.90
41784;DHT22;27458;53.236;-6.622;2022-08-01T14:35:05;21.70;99.90
41784;DHT22;27458;53.236;-6.622;2022-08-01T14:37:32;21.70;99.90
41784;DHT22;27458;53.236;-6.622;2022-08-01T14:40:01;21.60;99.90
41784;DHT22;27458;53.236;-6.622;2022-08-01T14:42:33;21.50;99.90
41784;DHT22;27458;53.236;-6.622;2022-08-01T14:45:01;21.40;99.90
41784;DHT22;27458;53.236;-6.622;2022-08-01T14:47:27;21.40;99.90
41784;DHT22;27458;53.236;-6.622;2022-08-01T14:49:53;21.30;99.90
41784;DHT22;27458;53.236;-6.622;2022-08-01T14:52:19;21.30;99.90
41784;DHT22;27458;53.236;-6.622;2022-08-01T14:54:48;21.30;99.90
41784;DHT22;27458;53.236;-6.622;2022-08-01T14:57:13;21.40;99.90
41784;DHT22;27458;53.236;-6.622;2022-08-01T14:59:43;21.40;99.90
41784;DHT22;27458;53.236;-6.622;2022-08-01T15:02:09;21.30;99.90
41784;DHT22;27458;53.236;-6.622;2022-08-01T15:04:38;21.20;99.90
41784;DHT22;27458;53.236;-6.622;2022-08-01T15:07:04;21.20;99.90
41784;DHT22;27458;53.236;-6.622;2022-08-01T15:09:29;21.20;99.90
41784;DHT22;27458;53.236;-6.622;2022-08-01T15:11:55;21.20;99.90
41784;DHT22;27458;53.236;-6.622;2022-08-01T15:14:20;21.10;99.90
41784;DHT22;27458;53.236;-6.622;2022-08-01T15:17:05;21.10;99.90
41784;DHT22;27458;53.236;-6.622;2022-08-01T15:19:33;21.10;99.90
41784;DHT22;27458;53.236;-6.622;2022-08-01T15:21:58;21.00;99.90
41784;DHT22;27458;53.236;-6.622;2022-08-01T15:24:24;21.00;99.90
41784;DHT22;27458;53.236;-6.622;2022-08-01T15:26:50;21.00;99.90
41784;DHT22;27458;53.236;-6.622;2022-08-01T15:29:16;21.00;99.90
41784;DHT22;27458;53.236;-6.622;2022-08-01T15:34:55;20.90;99.90
41784;DHT22;27458;53.236;-6.622;2022-08-01T19:27:06;20.10;99.90
41784;DHT22;27458;53.236;-6.622;2022-08-01T19:29:39;20.20;99.90
41784;DHT22;27458;53.236;-6.622;2022-08-01T19:32:14;20.20;99.90
41784;DHT22;27458;53.236;-6.622;2022-08-01T19:34:48;20.20;99.90
41784;DHT22;27458;53.236;-6.622;2022-08-01T19:37:18;20.10;99.90
41784;DHT22;27458;53.236;-6.622;2022-08-01T19:39:44;20.10;99.90
41784;DHT22;27458;53.236;-6.622;2022-08-01T19:42:15;20.20;99.90
41784;DHT22;27458;53.236;-6.622;2022-08-01T19:44:43;20.10;99.90
41784;DHT22;27458;53.236;-6.622;2022-08-01T19:47:09;20.20;99.90
41784;DHT22;27458;53.236;-6.622;2022-08-01T19:49:35;20.10;99.90
41784;DHT22;27458;53.236;-6.622;2022-08-01T19:52:04;20.20;99.90
41784;DHT22;27458;53.236;-6.622;2022-08-01T19:54:42;20.10;99.90
41784;DHT22;27458;53.236;-6.622;2022-08-01T19:57:13;20.10;99.90
41784;DHT22;27458;53.236;-6.622;2022-08-01T19:59:39;20.10;99.90